sensor_id;sensor_type;location;lat;lon;timestamp;pressure;altitude;pressure_sealevel;temperature
38249;BMP280;24045;51.138;17.126;2023-04-03T00:09:32;101080.36;;;1.55
38249;BMP280;24045;51.138;17.126;2023-04-03T00:24:35;101077.59;;;1.26
38249;BMP280;24045;51.138;17.126;2023-04-03T00:39:37;101087.84;;;1.03
38249;BMP280;24045;51.138;17.126;2023-04-03T00:54:40;101089.67;;;0.84
38249;BMP280;24045;51.138;17.126;2023-04-03T01:09:45;101094.29;;;0.59
38249;BMP280;24045;51.138;17.126;2023-04-03T01:24:49;101106.56;;;0.33
38249;BMP280;24045;51.138;17.126;2023-04-03T01:39:53;101112.10;;;0.34
38249;BMP280;24045;51.138;17.126;2023-04-03T01:54:56;101116.27;;;0.59
38249;BMP280;24045;51.138;17.126;2023-04-03T02:09:58;101128.16;;;0.57
38249;BMP280;24045;51.138;17.126;2023-04-03T02:25:02;101131.63;;;0.54
38249;BMP280;24045;51.138;17.126;2023-04-03T02:40:06;101132.30;;;0.46
38249;BMP280;24045;51.138;17.126;2023-04-03T02:55:14;101144.61;;;0.29
38249;BMP280;24045;51.138;17.126;2023-04-03T03:10:18;101157.54;;;0.04
38249;BMP280;24045;51.138;17.126;2023-04-03T03:25:21;101165.78;;;-0.07
38249;BMP280;24045;51.138;17.126;2023-04-03T03:40:24;101163.77;;;-0.23
38249;BMP280;24045;51.138;17.126;2023-04-03T03:55:27;101178.06;;;-0.42
38249;BMP280;24045;51.138;17.126;2023-04-03T04:10:29;101184.85;;;-0.55
38249;BMP280;24045;51.138;17.126;2023-04-03T04:25:32;101191.11;;;-0.67
38249;BMP280;24045;51.138;17.126;2023-04-03T04:40:35;101203.83;;;-0.77
38249;BMP280;24045;51.138;17.126;2023-04-03T04:55:40;101227.23;;;-0.77
38249;BMP280;24045;51.138;17.126;2023-04-03T05:10:45;101244.37;;;-0.29
38249;BMP280;24045;51.138;17.126;2023-04-03T05:25:49;101256.45;;;2.41
38249;BMP280;24045;51.138;17.126;2023-04-03T05:40:52;101274.85;;;4.67
38249;BMP280;24045;51.138;17.126;2023-04-03T05:55:55;101279.69;;;6.74
38249;BMP280;24045;51.138;17.126;2023-04-03T06:10:57;101291.77;;;7.44
38249;BMP280;24045;51.138;17.126;2023-04-03T06:26:00;101299.72;;;8.48
38249;BMP280;24045;51.138;17.126;2023-04-03T06:41:03;101304.34;;;7.99
38249;BMP280;24045;51.138;17.126;2023-04-03T06:56:07;101313.11;;;8.23
38249;BMP280;24045;51.138;17.126;2023-04-03T07:11:11;101332.61;;;7.63
38249;BMP280;24045;51.138;17.126;2023-04-03T07:26:14;101344.45;;;6.19
38249;BMP280;24045;51.138;17.126;2023-04-03T07:41:18;101352.30;;;6.54
38249;BMP280;24045;51.138;17.126;2023-04-03T07:56:22;101363.95;;;7.58
38249;BMP280;24045;51.138;17.126;2023-04-03T08:11:25;101360.67;;;8.78
38249;BMP280;24045;51.138;17.126;2023-04-03T08:26:28;101364.11;;;8.19
38249;BMP280;24045;51.138;17.126;2023-04-03T08:41:34;101364.55;;;10.41
38249;BMP280;24045;51.138;17.126;2023-04-03T08:56:38;101361.00;;;9.95
38249;BMP280;24045;51.138;17.126;2023-04-03T09:11:53;101366.87;;;8.44
38249;BMP280;24045;51.138;17.126;2023-04-03T09:27:09;101356.84;;;7.47
38249;BMP280;24045;51.138;17.126;2023-04-03T09:42:19;101363.89;;;6.44
38249;BMP280;24045;51.138;17.126;2023-04-03T09:57:32;101369.30;;;6.67
38249;BMP280;24045;51.138;17.126;2023-04-03T10:12:35;101370.70;;;7.90
38249;BMP280;24045;51.138;17.126;2023-04-03T10:27:47;101361.05;;;8.45
38249;BMP280;24045;51.138;17.126;2023-04-03T10:43:02;101364.13;;;7.00
38249;BMP280;24045;51.138;17.126;2023-04-03T10:58:20;101348.84;;;7.49
38249;BMP280;24045;51.138;17.126;2023-04-03T11:13:33;101343.49;;;6.76
38249;BMP280;24045;51.138;17.126;2023-04-03T11:28:37;101342.57;;;6.87
38249;BMP280;24045;51.138;17.126;2023-04-03T11:43:43;101333.58;;;6.67
38249;BMP280;24045;51.138;17.126;2023-04-03T12:14:15;101327.38;;;6.87
38249;BMP280;24045;51.138;17.126;2023-04-03T12:29:22;101322.08;;;7.61
38249;BMP280;24045;51.138;17.126;2023-04-03T12:44:30;101316.04;;;7.50
38249;BMP280;24045;51.138;17.126;2023-04-03T12:59:36;101317.24;;;7.80
38249;BMP280;24045;51.138;17.126;2023-04-03T13:14:40;101315.35;;;7.53
38249;BMP280;24045;51.138;17.126;2023-04-03T13:29:43;101293.25;;;7.18
38249;BMP280;24045;51.138;17.126;2023-04-03T14:00:36;101300.79;;;6.81
38249;BMP280;24045;51.138;17.126;2023-04-03T14:15:40;101290.85;;;7.00
38249;BMP280;24045;51.138;17.126;2023-04-03T14:30:43;101291.18;;;6.45
38249;BMP280;24045;51.138;17.126;2023-04-03T14:45:47;101303.35;;;6.78
38249;BMP280;24045;51.138;17.126;2023-04-03T15:00:51;101287.34;;;6.21
38249;BMP280;24045;51.138;17.126;2023-04-03T15:15:54;101289.54;;;6.16
38249;BMP280;24045;51.138;17.126;2023-04-03T15:30:57;101296.10;;;5.89
38249;BMP280;24045;51.138;17.126;2023-04-03T15:46:01;101298.83;;;5.50
38249;BMP280;24045;51.138;17.126;2023-04-03T16:01:05;101310.97;;;5.51
38249;BMP280;24045;51.138;17.126;2023-04-03T16:16:09;101316.19;;;5.30
38249;BMP280;24045;51.138;17.126;2023-04-03T16:31:12;101314.98;;;4.91
38249;BMP280;24045;51.138;17.126;2023-04-03T16:46:15;101325.51;;;4.82
38249;BMP280;24045;51.138;17.126;2023-04-03T17:01:19;101332.48;;;4.67
38249;BMP280;24045;51.138;17.126;2023-04-03T17:16:23;101344.04;;;4.47
38249;BMP280;24045;51.138;17.126;2023-04-03T17:31:26;101346.85;;;4.31
38249;BMP280;24045;51.138;17.126;2023-04-03T17:46:29;101353.13;;;4.18
38249;BMP280;24045;51.138;17.126;2023-04-03T18:01:35;101350.70;;;4.04
38249;BMP280;24045;51.138;17.126;2023-04-03T18:16:38;101354.07;;;3.89
38249;BMP280;24045;51.138;17.126;2023-04-03T18:31:45;101355.08;;;3.81
38249;BMP280;24045;51.138;17.126;2023-04-03T18:46:50;101360.22;;;3.70
38249;BMP280;24045;51.138;17.126;2023-04-03T19:01:55;101366.41;;;3.55
38249;BMP280;24045;51.138;17.126;2023-04-03T19:16:58;101363.03;;;3.44
38249;BMP280;24045;51.138;17.126;2023-04-03T19:32:01;101361.61;;;3.30
38249;BMP280;24045;51.138;17.126;2023-04-03T19:47:04;101364.61;;;3.18
38249;BMP280;24045;51.138;17.126;2023-04-03T20:02:07;101360.92;;;3.06
38249;BMP280;24045;51.138;17.126;2023-04-03T20:17:10;101370.52;;;3.05
38249;BMP280;24045;51.138;17.126;2023-04-03T20:32:13;101371.84;;;3.09
38249;BMP280;24045;51.138;17.126;2023-04-03T20:47:17;101382.63;;;2.99
38249;BMP280;24045;51.138;17.126;2023-04-03T21:02:21;101382.22;;;2.70
38249;BMP280;24045;51.138;17.126;2023-04-03T21:32:26;101372.17;;;1.68
38249;BMP280;24045;51.138;17.126;2023-04-03T21:47:29;101376.63;;;1.22
38249;BMP280;24045;51.138;17.126;2023-04-03T22:02:32;101374.02;;;0.72
38249;BMP280;24045;51.138;17.126;2023-04-03T22:17:37;101376.84;;;0.28
38249;BMP280;24045;51.138;17.126;2023-04-03T22:32:40;101381.70;;;-0.08
38249;BMP280;24045;51.138;17.126;2023-04-03T22:47:43;101395.31;;;-0.38
38249;BMP280;24045;51.138;17.126;2023-04-03T23:02:46;101393.43;;;-0.58
38249;BMP280;24045;51.138;17.126;2023-04-03T23:17:49;101399.91;;;-0.77
38249;BMP280;24045;51.138;17.126;2023-04-03T23:32:52;101397.80;;;-0.76
38249;BMP280;24045;51.138;17.126;2023-04-03T23:47:55;101391.70;;;-0.76
